Time;durP1;ratioP1;P1;durP2;ratioP2;P2;SDS_P1;SDS_P2;PMS_P1;PMS_P2;Temp;Humidity;BMP_temperature;BMP_pressure;BME280_temperature;BME280_humidity;BME280_pressure;Samples;Min_cycle;Max_cycle;Signal;HPM_P1;HPM_P2
2022/12/14 00:01:21;;;;;;;35.92;15.02;;;;;;;-5.52;100.00;99974.44;5162480;28;20030;-75
2022/12/14 00:03:53;;;;;;;36.83;15.23;;;;;;;-5.59;100.00;99969.22;5169680;28;20495;-74
2022/12/14 00:06:29;;;;;;;31.45;14.73;;;;;;;-5.81;100.00;99978.16;5167909;28;20476;-73
2022/12/14 00:09:03;;;;;;;30.38;14.15;;;;;;;-5.74;100.00;99974.00;5170547;28;20034;-74
2022/12/14 00:11:33;;;;;;;32.00;14.32;;;;;;;-5.68;100.00;99967.34;5174421;28;20083;-75
2022/12/14 00:14:04;;;;;;;29.67;13.52;;;;;;;-5.61;100.00;99971.72;5173100;28;20018;-74
2022/12/14 00:16:35;;;;;;;30.55;13.77;;;;;;;-5.59;100.00;99964.97;5179341;28;20057;-74
2022/12/14 00:19:05;;;;;;;31.60;13.73;;;;;;;-5.58;100.00;99966.66;5173450;28;20046;-74
2022/12/14 00:21:35;;;;;;;32.70;14.30;;;;;;;-5.58;100.00;99966.66;5169849;28;20117;-75
2022/12/14 00:24:06;;;;;;;37.15;15.25;;;;;;;-5.55;100.00;99958.25;5167409;28;20021;-76
2022/12/14 00:26:36;;;;;;;29.35;13.25;;;;;;;-5.56;100.00;99967.56;5167931;28;20472;-74
2022/12/14 00:29:06;;;;;;;36.25;14.15;;;;;;;-5.54;100.00;99968.44;5172143;28;20396;-74
2022/12/14 00:31:37;;;;;;;31.73;13.68;;;;;;;-5.69;100.00;99964.75;5172795;28;20038;-74
2022/12/14 00:34:07;;;;;;;37.28;15.02;;;;;;;-5.74;100.00;99968.91;5172067;28;20061;-74
2022/12/14 00:36:37;;;;;;;33.03;14.40;;;;;;;-5.81;100.00;99955.25;5169390;28;20054;-74
2022/12/14 00:39:08;;;;;;;32.15;14.25;;;;;;;-5.74;100.00;99956.19;5171863;28;20258;-74
2022/12/14 00:41:38;;;;;;;34.97;14.15;;;;;;;-5.73;100.00;99956.22;5171164;28;20018;-75
2022/12/14 00:44:08;;;;;;;33.80;13.55;;;;;;;-5.78;100.00;99951.94;5172946;28;20030;-74
2022/12/14 00:46:38;;;;;;;29.45;13.90;;;;;;;-5.76;100.00;99945.16;5172347;28;20385;-76
2022/12/14 00:49:09;;;;;;;35.88;14.40;;;;;;;-5.87;100.00;99947.53;5172330;28;20037;-74
2022/12/14 00:51:40;;;;;;;33.13;13.88;;;;;;;-5.83;100.00;99944.19;5169826;28;20026;-75
2022/12/14 00:54:10;;;;;;;30.45;13.73;;;;;;;-5.75;100.00;99937.53;5178023;28;20074;-75
2022/12/14 00:56:40;;;;;;;33.35;13.38;;;;;;;-5.70;100.00;99943.56;5172969;28;20026;-73
2022/12/14 00:59:11;;;;;;;29.60;13.27;;;;;;;-5.70;100.00;99933.41;5172106;28;20161;-74
2022/12/14 01:01:41;;;;;;;31.73;13.48;;;;;;;-5.79;100.00;99933.25;5175200;28;20706;-74
2022/12/14 01:04:18;;;;;;;29.52;13.10;;;;;;;-5.79;100.00;99934.91;5176973;28;20138;-74
2022/12/14 01:06:49;;;;;;;26.45;13.25;;;;;;;-5.60;100.00;99942.06;5175637;28;20108;-76
2022/12/14 01:09:21;;;;;;;29.70;12.80;;;;;;;-5.71;100.00;99946.06;5172269;28;20026;-75
2022/12/14 01:11:52;;;;;;;32.28;13.48;;;;;;;-5.80;100.00;99931.53;5171044;28;20030;-74
2022/12/14 01:14:22;;;;;;;32.10;13.38;;;;;;;-5.80;100.00;99931.53;5175189;28;20041;-74
2022/12/14 01:16:52;;;;;;;31.85;12.82;;;;;;;-5.83;100.00;99936.56;5172269;28;20169;-75
2022/12/14 01:19:23;;;;;;;28.80;12.95;;;;;;;-5.75;100.00;99941.78;5170724;28;20030;-74
2022/12/14 01:21:54;;;;;;;28.52;12.85;;;;;;;-5.71;100.00;99936.75;5176525;28;20014;-76
2022/12/14 01:24:24;;;;;;;29.30;12.18;;;;;;;-5.72;100.00;99937.56;5176270;28;20022;-74
2022/12/14 01:26:54;;;;;;;30.08;12.77;;;;;;;-5.70;100.00;99935.06;5174814;28;20042;-74
2022/12/14 01:29:24;;;;;;;30.65;12.90;;;;;;;-5.79;100.00;99940.00;5172847;28;20030;-74
2022/12/14 01:31:55;;;;;;;27.67;12.13;;;;;;;-5.78;100.00;99927.28;5168688;28;20054;-74
2022/12/14 01:34:25;;;;;;;26.02;11.88;;;;;;;-5.73;100.00;99930.78;5176564;28;20496;-74
2022/12/14 01:36:55;;;;;;;27.75;11.52;;;;;;;-5.68;100.00;99936.81;5160825;28;20018;-74
2022/12/14 01:39:26;;;;;;;26.35;11.93;;;;;;;-5.67;100.00;99933.44;5176026;28;20057;-74
2022/12/14 01:41:56;;;;;;;26.45;12.27;;;;;;;-5.66;100.00;99922.44;5171611;28;20064;-74
2022/12/14 01:44:26;;;;;;;24.77;11.65;;;;;;;-5.69;100.00;99922.41;5175486;28;20025;-75
2022/12/14 01:47:01;;;;;;;23.83;10.88;;;;;;;-5.73;100.00;99923.13;5176715;28;20503;-76
2022/12/14 01:49:38;;;;;;;23.95;11.23;;;;;;;-5.84;100.00;99911.97;5172527;28;20038;-75
2022/12/14 01:52:29;;;;;;;24.73;11.32;;;;;;;-5.97;100.00;99912.56;5172273;28;20495;-74
2022/12/14 01:55:23;;;;;;;27.83;12.18;;;;;;;-5.75;100.00;99912.09;5173624;28;20042;-76
2022/12/14 01:58:11;;;;;;;27.88;12.32;;;;;;;-5.65;100.00;99898.72;5173059;28;20117;-75
2022/12/14 02:00:42;;;;;;;26.75;12.45;;;;;;;-5.70;100.00;99899.47;5169836;28;20270;-74
2022/12/14 02:03:20;;;;;;;27.15;12.43;;;;;;;-5.59;99.43;99897.97;5176580;28;20403;-74
2022/12/14 02:05:55;;;;;;;30.20;12.02;;;;;;;-5.68;99.77;99893.59;5170647;28;20026;-73
2022/12/14 02:08:26;;;;;;;30.02;12.55;;;;;;;-5.85;100.00;99904.31;5168085;28;20402;-74
2022/12/14 02:10:57;;;;;;;30.40;12.30;;;;;;;-6.05;100.00;99891.22;5168458;28;20099;-74
2022/12/14 02:13:31;;;;;;;30.38;13.57;;;;;;;-6.13;100.00;99897.84;5168562;28;20249;-74
2022/12/14 02:16:02;;;;;;;32.08;13.40;;;;;;;-6.06;100.00;99888.66;5171673;28;20026;-74
2022/12/14 02:18:32;;;;;;;29.45;13.23;;;;;;;-6.05;100.00;99880.19;5174473;28;20548;-75
2022/12/14 02:21:12;;;;;;;27.92;12.38;;;;;;;-5.97;100.00;99884.59;5173296;28;20117;-75
2022/12/14 02:24:05;;;;;;;29.88;12.32;;;;;;;-6.03;100.00;99881.97;5166104;28;20057;-74
2022/12/14 02:27:06;;;;;;;28.25;11.88;;;;;;;-6.09;100.00;99886.91;5166950;28;20038;-76
2022/12/14 02:30:13;;;;;;;26.38;11.80;;;;;;;-6.11;100.00;99878.41;5171776;28;20026;-76
2022/12/14 02:33:02;;;;;;;27.17;11.70;;;;;;;-6.13;100.00;99882.59;5174776;28;20045;-74
2022/12/14 02:35:38;;;;;;;26.88;12.07;;;;;;;-6.18;100.00;99878.25;5172344;28;20204;-74
2022/12/14 02:38:33;;;;;;;25.42;11.63;;;;;;;-6.05;100.00;99875.13;5167143;28;20041;-74
2022/12/14 02:41:22;;;;;;;28.17;12.25;;;;;;;-5.99;100.00;99865.91;5173680;28;20075;-74
2022/12/14 02:43:55;;;;;;;26.00;11.48;;;;;;;-6.08;100.00;99863.19;5173638;28;20030;-74
2022/12/14 02:46:37;;;;;;;25.45;11.65;;;;;;;-6.12;100.00;99853.81;5175863;28;20087;-74
2022/12/14 02:49:23;;;;;;;26.15;10.77;;;;;;;-6.00;100.00;99855.72;5169635;28;20038;-75
2022/12/14 02:52:02;;;;;;;25.67;11.73;;;;;;;-6.02;100.00;99853.16;5173161;28;20026;-74
2022/12/14 02:54:43;;;;;;;25.40;11.50;;;;;;;-6.02;100.00;99863.34;5173288;28;20032;-73
2022/12/14 02:57:25;;;;;;;29.85;11.75;;;;;;;-6.03;100.00;99848.03;5173709;28;20563;-76
2022/12/14 03:00:00;;;;;;;25.80;11.85;;;;;;;-6.12;100.00;99843.63;5174945;28;20531;-74
2022/12/14 03:02:36;;;;;;;26.23;11.27;;;;;;;-6.10;100.00;99849.59;5169920;28;20542;-74
2022/12/14 03:05:07;;;;;;;23.60;10.45;;;;;;;-6.07;100.00;99847.13;5175031;28;20041;-75
2022/12/14 03:07:48;;;;;;;24.35;10.60;;;;;;;-5.99;100.00;99843.03;5163318;28;20116;-75
2022/12/14 03:10:43;;;;;;;25.40;10.57;;;;;;;-5.98;100.00;99836.25;5168964;28;20050;-74
2022/12/14 03:13:28;;;;;;;24.67;11.15;;;;;;;-6.03;100.00;99833.66;5170630;28;20037;-75
2022/12/14 03:16:13;;;;;;;23.77;10.80;;;;;;;-6.18;100.00;99838.47;5172466;28;20030;-74
2022/12/14 03:19:18;;;;;;;24.48;11.10;;;;;;;-6.14;100.00;99831.72;5174522;28;20030;-75
2022/12/14 03:21:55;;;;;;;29.45;12.05;;;;;;;-6.20;100.00;99824.88;5169799;28;20537;-75
2022/12/14 03:24:37;;;;;;;31.17;13.25;;;;;;;-6.14;100.00;99824.09;5169614;28;20030;-74
2022/12/14 03:27:14;;;;;;;30.27;12.77;;;;;;;-6.08;100.00;99817.44;5172343;28;20022;-74
2022/12/14 03:29:52;;;;;;;28.55;11.55;;;;;;;-6.13;100.00;99813.09;5171762;28;20034;-75
2022/12/14 03:32:26;;;;;;;21.38;10.35;;;;;;;-6.07;100.00;99811.53;5169499;28;20022;-74
2022/12/14 03:35:02;;;;;;;25.15;10.60;;;;;;;-6.05;100.00;99816.66;5166021;28;20029;-76
2022/12/14 03:37:43;;;;;;;25.92;11.27;;;;;;;-6.10;100.00;99801.31;5173163;28;20433;-74
2022/12/14 03:40:14;;;;;;;27.38;10.45;;;;;;;-6.11;100.00;99801.31;5169707;28;20032;-76
2022/12/14 03:42:57;;;;;;;22.58;10.70;;;;;;;-6.15;100.00;99792.75;5174622;28;20025;-74
2022/12/14 03:45:41;;;;;;;24.67;10.73;;;;;;;-6.13;100.00;99797.84;5169534;28;20109;-74
2022/12/14 03:48:30;;;;;;;23.92;11.05;;;;;;;-6.16;100.00;99785.97;5168447;28;20526;-74
2022/12/14 03:51:09;;;;;;;25.58;10.45;;;;;;;-6.05;100.00;99794.59;5174980;28;20145;-77
2022/12/14 03:54:08;;;;;;;27.73;11.18;;;;;;;-5.74;100.00;99784.09;5171300;28;20542;-75
2022/12/14 03:57:13;;;;;;;26.55;10.90;;;;;;;-5.66;100.00;99780.00;5145798;28;20285;-76
2022/12/14 03:59:49;;;;;;;24.25;11.05;;;;;;;-5.82;96.94;99765.34;5166081;28;20014;-74
2022/12/14 04:02:28;;;;;;;24.77;10.90;;;;;;;-6.03;98.66;99772.63;5168962;28;20034;-74
2022/12/14 04:05:17;;;;;;;25.20;11.13;;;;;;;-6.08;100.00;99755.59;5172714;28;20606;-74
2022/12/14 04:08:23;;;;;;;29.45;12.02;;;;;;;-6.34;100.00;99764.44;5172302;28;20030;-75
2022/12/14 04:19:43;;;;;;;25.25;11.02;;;;;;;-6.69;100.00;99766.34;5166141;28;20077;-74
2022/12/14 04:22:26;;;;;;;27.67;11.93;;;;;;;-6.70;100.00;99763.75;5170601;28;20030;-74
2022/12/14 04:28:02;;;;;;;22.42;10.60;;;;;;;-6.93;100.00;99753.16;5177080;28;20116;-74
2022/12/14 04:30:37;;;;;;;25.42;11.50;;;;;;;-6.90;100.00;99755.75;5174185;28;20022;-76
2022/12/14 04:36:02;;;;;;;25.75;11.32;;;;;;;-6.89;100.00;99733.78;5170154;28;19960;-74
2022/12/14 04:38:36;;;;;;;22.27;11.07;;;;;;;-6.76;100.00;99738.25;5176672;28;20038;-74
2022/12/14 04:41:12;;;;;;;24.42;10.75;;;;;;;-6.84;100.00;99729.63;5184693;28;20445;-75
2022/12/14 04:43:45;;;;;;;25.73;12.10;;;;;;;-6.85;100.00;99731.34;5182028;28;20120;-74
2022/12/14 04:46:29;;;;;;;27.55;11.40;;;;;;;-6.72;100.00;99730.75;5174871;28;20022;-75
2022/12/14 04:49:27;;;;;;;25.38;11.55;;;;;;;-6.93;98.64;99727.78;5177005;28;20558;-76
2022/12/14 04:52:07;;;;;;;27.08;11.13;;;;;;;-7.14;99.87;99723.97;5172224;28;20034;-73
2022/12/14 04:54:46;;;;;;;24.63;11.38;;;;;;;-7.23;100.00;99722.91;5174135;28;20033;-74
2022/12/14 04:57:44;;;;;;;25.73;11.38;;;;;;;-7.09;100.00;99727.44;5181364;28;20029;-75
2022/12/14 05:00:15;;;;;;;23.90;11.20;;;;;;;-6.86;100.00;99722.00;5171559;28;20492;-74
2022/12/14 05:03:18;;;;;;;24.88;10.63;;;;;;;-6.94;99.25;99723.53;5177196;28;20034;-75
2022/12/14 05:06:06;;;;;;;22.65;11.18;;;;;;;-6.94;98.61;99715.91;5169257;28;20026;-72
2022/12/14 05:09:13;;;;;;;27.17;11.35;;;;;;;-7.24;99.47;99722.06;5173020;28;20026;-72
2022/12/14 05:11:50;;;;;;;25.80;10.88;;;;;;;-6.94;99.62;99723.53;5172586;28;20617;-75
2022/12/14 05:14:46;;;;;;;28.23;11.82;;;;;;;-7.05;100.00;99714.88;5170736;28;20029;-74
2022/12/14 05:17:17;;;;;;;24.33;10.63;;;;;;;-7.25;99.34;99719.47;5173197;28;20041;-74
2022/12/14 05:19:49;;;;;;;26.13;10.57;;;;;;;-7.21;100.00;99701.81;5177796;28;20627;-75
2022/12/14 05:22:20;;;;;;;25.98;10.88;;;;;;;-7.22;100.00;99702.66;5177457;28;20072;-73
2022/12/14 05:24:50;;;;;;;26.15;10.95;;;;;;;-7.21;100.00;99701.00;5180633;28;20499;-77
2022/12/14 05:27:20;;;;;;;27.30;11.43;;;;;;;-7.45;99.67;99698.81;5170070;28;20476;-74
2022/12/14 05:29:51;;;;;;;23.70;10.13;;;;;;;-7.33;100.00;99695.66;5175665;28;20202;-74
2022/12/14 05:32:22;;;;;;;23.95;11.05;;;;;;;-7.51;98.57;99702.88;5176478;28;20030;-74
2022/12/14 05:34:53;;;;;;;22.85;10.32;;;;;;;-7.55;98.18;99703.66;5174221;28;20092;-75
2022/12/14 05:37:23;;;;;;;21.77;9.63;;;;;;;-7.41;98.44;99695.50;5170579;28;20029;-73
2022/12/14 05:39:54;;;;;;;24.48;10.20;;;;;;;-7.62;98.89;99697.59;5178425;28;20053;-73
2022/12/14 05:42:24;;;;;;;29.10;10.88;;;;;;;-7.60;99.66;99680.72;5183998;28;20026;-73
2022/12/14 05:44:54;;;;;;;27.60;11.10;;;;;;;-7.55;100.00;99683.38;5172803;28;20085;-74
2022/12/14 05:47:27;;;;;;;24.95;10.93;;;;;;;-7.50;100.00;99681.78;5180995;28;20026;-76
2022/12/14 05:49:58;;;;;;;23.90;10.95;;;;;;;-7.40;100.00;99682.00;5174722;28;20018;-76
2022/12/14 05:52:28;;;;;;;26.75;10.98;;;;;;;-7.40;100.00;99678.56;5171737;28;20538;-75
2022/12/14 05:54:58;;;;;;;26.10;10.63;;;;;;;-7.56;100.00;99684.19;5165730;28;20110;-74
2022/12/14 05:57:29;;;;;;;28.73;11.13;;;;;;;-7.57;100.00;99685.84;5167425;28;20017;-75
2022/12/14 05:59:59;;;;;;;24.80;10.90;;;;;;;-7.52;100.00;99685.97;5162078;28;20037;-74
2022/12/14 06:02:29;;;;;;;26.33;10.93;;;;;;;-7.41;100.00;99679.41;5164463;28;20026;-74
2022/12/14 06:05:00;;;;;;;21.92;9.60;;;;;;;-7.13;100.00;99674.94;5173232;28;20125;-75
2022/12/14 06:07:30;;;;;;;23.95;10.00;;;;;;;-7.14;100.00;99666.44;5167359;28;20029;-73
2022/12/14 06:10:00;;;;;;;24.65;9.85;;;;;;;-7.11;99.22;99663.97;5174763;28;20209;-74
2022/12/14 06:12:31;;;;;;;20.05;9.23;;;;;;;-7.00;100.00;99654.88;5172931;28;20022;-75
2022/12/14 06:15:01;;;;;;;20.90;9.15;;;;;;;-7.00;98.81;99652.34;5177021;28;20018;-76
2022/12/14 06:17:31;;;;;;;19.55;8.65;;;;;;;-7.02;97.79;99651.47;5173828;28;20250;-77
2022/12/14 06:20:02;;;;;;;19.15;7.78;;;;;;;-7.09;99.03;99648.78;5177170;28;20037;-76
2022/12/14 06:22:32;;;;;;;28.08;10.45;;;;;;;-7.17;99.61;99646.09;5171693;28;20029;-75
2022/12/14 06:25:03;;;;;;;28.90;11.63;;;;;;;-7.10;100.00;99644.53;5160206;28;20035;-74
2022/12/14 06:27:34;;;;;;;24.42;10.23;;;;;;;-7.19;100.00;99643.50;5169397;28;20092;-74
2022/12/14 06:30:05;;;;;;;26.00;10.82;;;;;;;-7.26;100.00;99634.94;5165465;28;20033;-77
2022/12/14 06:32:36;;;;;;;28.63;10.05;;;;;;;-7.25;100.00;99633.22;5161397;28;20246;-73
2022/12/14 06:35:07;;;;;;;19.42;8.73;;;;;;;-7.11;99.97;99637.75;5171210;28;20076;-76
2022/12/14 06:37:37;;;;;;;22.05;8.77;;;;;;;-7.11;99.80;99625.91;5171876;28;20514;-75
2022/12/14 06:40:08;;;;;;;21.00;9.52;;;;;;;-7.08;100.00;99628.50;5174021;28;20313;-75
2022/12/14 06:42:39;;;;;;;20.10;8.52;;;;;;;-6.98;100.00;99620.22;5172069;28;20109;-75
2022/12/14 06:45:09;;;;;;;17.83;8.30;;;;;;;-7.02;100.00;99620.16;5169698;28;20030;-76
2022/12/14 06:47:40;;;;;;;19.85;7.40;;;;;;;-6.80;100.00;99615.47;5173061;28;20026;-74
2022/12/14 06:50:10;;;;;;;14.00;6.43;;;;;;;-6.57;100.00;99613.31;5171768;28;20518;-76
2022/12/14 06:52:40;;;;;;;14.40;6.40;;;;;;;-6.42;99.73;99609.31;5170841;28;20121;-76
2022/12/14 06:55:11;;;;;;;15.90;6.50;;;;;;;-6.37;100.00;99606.88;5170600;28;20228;-75
2022/12/14 06:57:41;;;;;;;15.60;6.68;;;;;;;-6.33;98.84;99604.41;5168250;28;20254;-75
2022/12/14 07:00:12;;;;;;;16.27;6.70;;;;;;;-6.37;100.00;99602.66;5171821;28;20029;-72
2022/12/14 07:02:42;;;;;;;19.73;6.72;;;;;;;-6.43;99.94;99591.53;5168652;28;20110;-74
2022/12/14 07:05:13;;;;;;;14.25;6.68;;;;;;;-6.33;100.00;99585.75;5171149;28;20022;-72
2022/12/14 07:07:43;;;;;;;15.38;6.50;;;;;;;-6.32;100.00;99590.88;5169075;28;20037;-72
2022/12/14 07:10:14;;;;;;;14.10;6.25;;;;;;;-6.29;99.85;99596.00;5168001;28;20026;-70
2022/12/14 07:12:44;;;;;;;13.50;6.18;;;;;;;-6.37;99.79;99589.94;5172171;28;20045;-72
2022/12/14 07:15:14;;;;;;;12.35;5.80;;;;;;;-6.20;100.00;99587.66;5168979;28;20101;-72
2022/12/14 07:17:45;;;;;;;14.23;6.15;;;;;;;-5.94;98.22;99583.78;5167221;28;20030;-72
2022/12/14 07:20:15;;;;;;;15.23;6.15;;;;;;;-6.03;95.79;99583.66;5166415;28;20065;-75
2022/12/14 07:22:47;;;;;;;14.80;6.18;;;;;;;-5.96;96.36;99581.22;5171704;28;20025;-72
2022/12/14 07:25:17;;;;;;;16.85;6.57;;;;;;;-6.00;96.38;99573.53;5167395;28;20075;-74
2022/12/14 07:27:47;;;;;;;14.43;6.45;;;;;;;-5.93;96.54;99578.72;5172547;28;20076;-72
2022/12/14 07:30:17;;;;;;;14.30;6.32;;;;;;;-5.80;98.08;99578.03;5169146;28;20105;-72
2022/12/14 07:32:48;;;;;;;17.02;7.35;;;;;;;-5.87;98.07;99573.72;5172354;28;20030;-75
2022/12/14 07:35:18;;;;;;;20.63;8.10;;;;;;;-5.66;98.75;99568.88;5169297;28;20022;-72
2022/12/14 07:37:48;;;;;;;17.00;8.52;;;;;;;-5.69;98.59;99565.41;5172305;28;20050;-72
2022/12/14 07:40:18;;;;;;;20.42;8.15;;;;;;;-5.58;98.92;99564.72;5169474;28;20037;-72
2022/12/14 07:42:49;;;;;;;22.35;8.45;;;;;;;-5.50;99.03;99568.22;5170730;28;20061;-74
2022/12/14 07:45:19;;;;;;;18.08;8.20;;;;;;;-5.39;97.90;99564.94;5168962;28;20037;-72
2022/12/14 07:47:50;;;;;;;17.50;7.97;;;;;;;-5.33;98.72;99566.72;5172631;28;20305;-73
2022/12/14 07:50:20;;;;;;;16.77;7.53;;;;;;;-5.23;98.36;99565.94;5170319;28;20037;-73
2022/12/14 07:52:50;;;;;;;14.95;6.93;;;;;;;-5.15;98.14;99557.56;5171852;28;20034;-73
2022/12/14 07:55:21;;;;;;;13.93;6.97;;;;;;;-5.10;98.74;99555.94;5168260;28;20041;-73
2022/12/14 07:57:51;;;;;;;17.75;7.38;;;;;;;-5.04;97.52;99555.97;5168758;28;20065;-73
2022/12/14 08:00:21;;;;;;;15.65;7.32;;;;;;;-4.80;98.52;99550.25;5169074;28;20638;-74
2022/12/14 08:02:54;;;;;;;15.20;7.35;;;;;;;-4.73;98.32;99550.31;5166479;28;20037;-75
2022/12/14 08:05:24;;;;;;;16.98;7.45;;;;;;;-4.62;98.22;99537.66;5166349;28;20092;-73
2022/12/14 08:07:54;;;;;;;14.75;7.15;;;;;;;-4.47;98.24;99540.31;5170552;28;20483;-74
2022/12/14 08:10:25;;;;;;;21.20;6.70;;;;;;;-4.55;97.61;99534.31;5170938;28;20120;-74
2022/12/14 08:12:55;;;;;;;15.38;7.05;;;;;;;-4.58;96.99;99531.72;5169153;28;20037;-71
2022/12/14 08:15:25;;;;;;;15.15;6.95;;;;;;;-4.68;98.02;99535.03;5171900;28;20021;-75
2022/12/14 08:17:55;;;;;;;16.50;7.15;;;;;;;-4.53;98.84;99536.03;5172847;28;20109;-75
2022/12/14 08:20:26;;;;;;;15.48;7.00;;;;;;;-4.59;99.00;99532.56;5169974;28;20030;-75
2022/12/14 08:22:56;;;;;;;12.07;6.47;;;;;;;-4.53;98.80;99528.38;5169860;28;20026;-74
2022/12/14 08:25:26;;;;;;;14.15;6.57;;;;;;;-4.21;99.25;99523.47;5168809;28;20059;-75
2022/12/14 08:27:57;;;;;;;14.65;6.57;;;;;;;-4.16;96.94;99526.94;5170484;28;20029;-74
2022/12/14 08:30:27;;;;;;;15.07;6.30;;;;;;;-4.04;97.81;99532.94;5152418;28;20041;-76
2022/12/14 08:32:57;;;;;;;14.27;6.47;;;;;;;-4.00;97.81;99524.44;5168947;28;20026;-77
2022/12/14 08:35:27;;;;;;;11.98;5.78;;;;;;;-4.20;98.14;99527.72;5170939;28;20022;-73
2022/12/14 08:37:58;;;;;;;13.43;6.07;;;;;;;-4.30;100.00;99529.38;5170059;28;20095;-74
2022/12/14 08:40:29;;;;;;;12.52;5.63;;;;;;;-3.88;99.98;99514.31;5169914;28;20037;-72
2022/12/14 08:42:59;;;;;;;14.82;5.95;;;;;;;-3.80;97.50;99527.09;5170317;28;20046;-73
2022/12/14 08:45:29;;;;;;;14.88;5.60;;;;;;;-3.83;96.21;99521.97;5169328;28;20596;-72
2022/12/14 08:48:00;;;;;;;11.15;5.60;;;;;;;-3.75;95.65;99522.88;5171732;28;20029;-73
2022/12/14 08:50:31;;;;;;;10.80;5.35;;;;;;;-3.69;95.43;99516.09;5171703;28;20041;-74
2022/12/14 08:53:01;;;;;;;13.32;5.43;;;;;;;-3.45;94.99;99518.72;5169142;28;20037;-73
2022/12/14 08:55:31;;;;;;;13.75;6.25;;;;;;;-3.86;97.37;99519.41;5169769;28;20030;-72
2022/12/14 08:58:02;;;;;;;11.25;5.80;;;;;;;-3.77;98.53;99511.81;5162342;28;20029;-74
2022/12/14 09:00:32;;;;;;;14.90;6.60;;;;;;;-3.64;98.74;99523.78;5169719;28;20018;-73
2022/12/14 09:03:03;;;;;;;12.07;6.00;;;;;;;-3.54;97.84;99527.19;5166185;28;20022;-73
2022/12/14 09:05:34;;;;;;;11.98;5.45;;;;;;;-3.52;98.04;99515.28;5161734;28;20113;-74
2022/12/14 09:08:04;;;;;;;14.25;7.10;;;;;;;-3.56;97.71;99518.69;5165701;28;20109;-73
2022/12/14 09:10:35;;;;;;;14.90;6.03;;;;;;;-3.35;97.66;99520.44;5171509;28;20030;-72
2022/12/14 09:13:05;;;;;;;14.32;7.18;;;;;;;-3.25;96.93;99520.47;5173067;28;20075;-73
2022/12/14 09:15:35;;;;;;;12.32;6.22;;;;;;;-3.19;96.63;99520.47;5173682;28;20480;-73
2022/12/14 09:18:06;;;;;;;15.32;7.97;;;;;;;-3.38;96.44;99518.72;5176456;28;20041;-73
2022/12/14 09:20:36;;;;;;;12.70;7.32;;;;;;;-3.27;98.04;99517.06;5173792;28;20403;-75
2022/12/14 09:23:07;;;;;;;13.30;6.97;;;;;;;-3.15;99.54;99516.22;5175515;28;20083;-73
2022/12/14 09:25:38;;;;;;;14.15;7.32;;;;;;;-3.03;100.00;99517.09;5173928;28;20587;-74
2022/12/14 09:28:08;;;;;;;16.15;9.23;;;;;;;-2.89;99.65;99509.47;5167818;28;20035;-72
2022/12/14 09:30:38;;;;;;;15.05;7.68;;;;;;;-2.79;99.88;99511.16;5162732;28;20104;-74
2022/12/14 09:33:09;;;;;;;15.00;7.03;;;;;;;-2.70;100.00;99506.88;5169762;28;20488;-75
2022/12/14 09:35:39;;;;;;;16.42;7.60;;;;;;;-2.59;99.68;99505.19;5159973;28;20044;-74
2022/12/14 09:38:09;;;;;;;14.38;7.30;;;;;;;-2.44;99.24;99510.28;5173739;28;20356;-74
2022/12/14 09:40:47;;;;;;;15.68;7.38;;;;;;;-2.58;99.10;99508.56;5172731;28;20113;-74
2022/12/14 09:43:34;;;;;;;15.00;7.47;;;;;;;-2.49;99.55;99500.91;5166151;28;20077;-73
2022/12/14 09:46:36;;;;;;;13.80;6.68;;;;;;;-2.24;98.87;99512.78;5173387;28;20407;-73
2022/12/14 09:49:30;;;;;;;15.13;6.68;;;;;;;-2.29;98.40;99505.16;5168975;28;20057;-74
2022/12/14 09:52:03;;;;;;;13.13;6.20;;;;;;;-2.11;97.74;99500.00;5167880;28;20435;-74
2022/12/14 09:54:37;;;;;;;15.23;6.70;;;;;;;-2.25;96.92;99494.06;5172154;28;20036;-76
2022/12/14 09:57:18;;;;;;;13.40;6.78;;;;;;;-2.02;96.66;99491.44;5170293;28;20026;-73
2022/12/14 09:59:48;;;;;;;12.20;6.47;;;;;;;-2.17;97.37;99494.88;5163625;28;20045;-74
2022/12/14 10:02:33;;;;;;;13.20;6.65;;;;;;;-2.17;98.31;99482.06;5169887;28;20045;-76
2022/12/14 10:05:25;;;;;;;11.68;6.15;;;;;;;-1.83;97.39;99475.97;5172323;28;20030;-75
2022/12/14 10:08:17;;;;;;;13.20;6.97;;;;;;;-1.69;96.55;99485.31;5170959;28;20503;-73
2022/12/14 10:10:48;;;;;;;13.68;6.60;;;;;;;-1.92;94.61;99480.28;5170214;28;20030;-73
2022/12/14 10:13:45;;;;;;;14.73;7.53;;;;;;;-1.60;96.03;99476.75;5172244;28;20052;-74
2022/12/14 10:16:49;;;;;;;13.55;6.38;;;;;;;-1.55;96.14;99475.00;5172744;28;20057;-73
2022/12/14 10:19:25;;;;;;;13.23;6.78;;;;;;;-1.51;97.57;99463.88;5168859;28;20287;-73
2022/12/14 10:22:08;;;;;;;12.68;6.03;;;;;;;-1.53;98.39;99468.16;5170969;28;20094;-73
2022/12/14 10:24:47;;;;;;;12.38;5.40;;;;;;;-1.48;98.19;99464.72;5168006;28;20031;-74
2022/12/14 10:27:23;;;;;;;15.48;6.65;;;;;;;-1.53;97.57;99470.72;5171967;28;20160;-74
2022/12/14 10:30:02;;;;;;;12.10;6.38;;;;;;;-1.51;97.51;99469.00;5170361;28;20153;-73
2022/12/14 10:32:38;;;;;;;12.70;5.95;;;;;;;-1.50;97.51;99466.44;5172644;28;20471;-74
2022/12/14 10:35:14;;;;;;;12.60;6.05;;;;;;;-1.50;96.51;99470.69;5168462;28;20211;-73
2022/12/14 10:37:52;;;;;;;15.70;6.75;;;;;;;-1.75;96.37;99475.09;5173335;28;20443;-73
2022/12/14 10:40:29;;;;;;;12.93;6.60;;;;;;;-1.60;96.35;99464.78;5170254;28;20465;-73
2022/12/14 10:43:20;;;;;;;14.38;6.28;;;;;;;-1.81;94.62;99474.25;5170947;28;20022;-74
2022/12/14 10:45:59;;;;;;;12.35;5.95;;;;;;;-2.02;94.55;99474.34;5173367;28;20386;-74
2022/12/14 10:48:47;;;;;;;19.70;10.43;;;;;;;-2.32;97.04;99471.03;5174258;28;20079;-75
2022/12/14 10:51:26;;;;;;;11.65;5.68;;;;;;;-2.13;96.86;99473.53;5172425;28;20108;-75
2022/12/14 10:54:05;;;;;;;13.20;6.07;;;;;;;-2.23;95.36;99471.88;5171986;28;20025;-73
2022/12/14 10:56:38;;;;;;;11.68;5.57;;;;;;;-2.15;95.69;99467.56;5168307;28;20520;-75
2022/12/14 10:59:21;;;;;;;13.82;5.93;;;;;;;-2.31;95.27;99460.78;5167614;28;20113;-73
2022/12/14 11:02:07;;;;;;;11.27;5.38;;;;;;;-2.33;96.01;99457.38;5167408;28;20121;-73
2022/12/14 11:04:51;;;;;;;12.60;5.82;;;;;;;-2.38;96.21;99459.13;5168381;28;20116;-75
2022/12/14 11:07:33;;;;;;;12.53;5.60;;;;;;;-2.27;97.68;99452.28;5170358;28;20022;-73
2022/12/14 11:10:28;;;;;;;13.38;5.95;;;;;;;-2.33;97.13;99444.59;5169999;28;20313;-73
2022/12/14 11:12:58;;;;;;;14.40;6.00;;;;;;;-2.33;96.82;99447.16;5162070;28;20038;-73
2022/12/14 11:15:39;;;;;;;11.32;6.00;;;;;;;-2.21;97.33;99456.50;5169828;28;20023;-72
2022/12/14 11:18:15;;;;;;;15.70;7.63;;;;;;;-2.32;96.46;99451.41;5167712;28;20061;-73
2022/12/14 11:21:03;;;;;;;14.60;6.90;;;;;;;-2.17;97.23;99447.97;5169684;28;20806;-73
2022/12/14 11:23:38;;;;;;;16.77;8.20;;;;;;;-2.04;97.76;99444.50;5171108;28;20029;-73
2022/12/14 11:26:14;;;;;;;18.38;8.57;;;;;;;-2.06;97.00;99436.84;5168295;28;20025;-75
2022/12/14 11:28:49;;;;;;;18.25;8.93;;;;;;;-2.00;95.93;99441.09;5169617;28;20587;-73
2022/12/14 11:31:21;;;;;;;;;;;;;;;-2.01;94.62;99435.13;5167914;28;20037;-74
2022/12/14 11:33:54;;;;;;;21.58;8.32;;;;;;;-1.73;94.63;99439.25;5159056;28;20012;-73
2022/12/14 11:36:28;;;;;;;18.88;8.70;;;;;;;-1.69;93.84;99441.81;5170477;28;20507;-75
2022/12/14 11:39:02;;;;;;;19.58;9.40;;;;;;;-1.80;93.50;99433.31;5168836;28;20496;-73
2022/12/14 11:41:45;;;;;;;19.13;9.50;;;;;;;-1.75;91.58;99438.41;5164410;28;20030;-74
2022/12/14 11:44:15;;;;;;;22.73;11.05;;;;;;;-1.86;92.33;99429.94;5172606;28;20385;-75
2022/12/14 11:46:56;;;;;;;22.42;11.23;;;;;;;-1.59;93.09;99434.91;5169377;28;20030;-75
2022/12/14 11:49:39;;;;;;;24.02;12.07;;;;;;;-1.67;94.73;99424.72;5170425;28;20202;-74
2022/12/14 11:52:12;;;;;;;19.33;9.10;;;;;;;-1.68;92.69;99429.84;5165525;28;20155;-74
2022/12/14 11:55:07;;;;;;;14.55;8.15;;;;;;;-1.77;91.65;99419.66;5169311;28;20037;-74
2022/12/14 11:57:57;;;;;;;17.80;8.45;;;;;;;-1.61;92.49;99416.16;5168951;28;20059;-73
2022/12/14 12:00:37;;;;;;;23.88;11.57;;;;;;;-1.53;93.51;99419.50;5166250;28;20109;-74
2022/12/14 12:03:17;;;;;;;23.80;11.13;;;;;;;-1.60;93.14;99422.97;5173339;28;20026;-74
2022/12/14 12:05:48;;;;;;;24.35;11.32;;;;;;;-1.54;93.90;99420.38;5177293;28;20476;-73
2022/12/14 12:08:25;;;;;;;24.23;11.52;;;;;;;-1.40;94.41;99409.16;5173419;28;20029;-74
2022/12/14 12:11:01;;;;;;;24.23;11.05;;;;;;;-1.45;93.92;99407.50;5173514;28;20033;-73